• Join FlightAware (Why Join?)
  • Login
  • US Flag 
02:19PM EDT


 

Airport Tracker/Info


-or-


 

Live Flight TrackerFlight Track Log ✈ FLG4276 ✈ 19-Apr-2013 ✈ KDTW - KGRB

Flight Track Log - Related Links

Times and Time Zones

All times are in EDT time to prevent confusion due to time zone crossing. See the FLG4276 flight status page for this flight to view local times or setup timezone preferences in your user account.

Time Position Orientation Groundspeed Altitude Reporting Facility
EDT Latitude Longitude Course Direction KTS MPH feet Rate Location/Type
11:58PM 42.2069 -83.3514 North 146 168 1,400  Level FAA TRACON SMA TRACON (SMA)
11:58PM 42.1964 -83.3586 207° Southwest 147 169 2,200 2,220 Climbing FAA TRACON SMA TRACON (SMA)
11:58PM 42.1864 -83.3703 221° Southwest 163 188 2,900 2,520 Climbing FAA TRACON SMA TRACON (SMA)
11:59PM 42.1728 -83.3856 220° Southwest 182 209 3,900 2,880 Climbing FAA TRACON SMA TRACON (SMA)
11:59PM 42.1567 -83.4033 219° Southwest 206 237 4,800 2,340 Climbing FAA TRACON SMA TRACON (SMA)
11:59PM 42.1417 -83.4214 222° Southwest 226 260 5,500 2,400 Climbing FAA TRACON SMA TRACON (SMA)
12:00AM 42.1344 -83.4436 246° West 226 260 6,400 3,000 Climbing FAA TRACON SMA TRACON (SMA)
12:00AM 42.1397 -83.4728 284° West 236 272 7,500 3,120 Climbing FAA TRACON SMA TRACON (SMA)
12:00AM 42.1514 -83.4942 306° West 242 278 8,500 3,180 Climbing FAA TRACON SMA TRACON (SMA)
12:01AM 42.5928 -83.3500 North  Level FlightAware Approximate
12:01AM 42.1672 -83.5228 307° West 241 277 9,600  Level FAA TRACON SMA TRACON (SMA)
12:01AM 42.1808 -83.5464 308° West 261 300 9,900 540 Climbing FAA TRACON SMA TRACON (SMA)
12:01AM 42.1961 -83.5742 307° West 296 341 10,000 720 Climbing FAA TRACON SMA TRACON (SMA)
12:02AM 42.6910 -83.3500 North  Level FlightAware Approximate
12:02AM 42.2167 -83.6119 306° West 323 372 10,400  Level FAA TRACON SMA TRACON (SMA)
12:02AM 42.2339 -83.6422 308° West 326 375 11,200 2,580 Climbing FAA TRACON SMA TRACON (SMA)
12:02AM 42.2544 -83.6678 317° Northwest 323 372 12,100 2,520 Climbing FAA TRACON SMA TRACON (SMA)
12:03AM 42.7892 -83.3500 North  Level FlightAware Approximate
12:03AM 42.2908 -83.6775 349° North 356 410 12,900  Level FAA TRACON SMA TRACON (SMA)
12:03AM 42.3233 -83.6731 North 380 437 13,000 1,200 Climbing FAA TRACON SMA TRACON (SMA)
12:03AM 42.3561 -83.6656 10° North 385 443 13,700 2,520 Climbing FAA TRACON SMA TRACON (SMA)
12:04AM 42.3967 -83.6539 12° North 385 443 14,700 2,520 Climbing FAA TRACON SMA TRACON (SMA)
12:04AM 42.4283 -83.6617 350° North 365 420 15,400 1,620 Climbing FAA TRACON SMA TRACON (SMA)
12:04AM 42.4539 -83.6842 327° Northwest 363 418 15,800 1,440 Climbing FAA TRACON SMA TRACON (SMA)
12:05AM 42.4711 -83.7167 306° West 348 400 16,400 1,800 Climbing FAA TRACON SMA TRACON (SMA)
12:05AM 42.4922 -83.7594 304° West 352 405 17,000 1,800 Climbing FAA TRACON SMA TRACON (SMA)
12:05AM 42.5092 -83.7942 304° West 357 411 17,600 1,920 Climbing FAA TRACON SMA TRACON (SMA)
12:06AM 42.5264 -83.8289 304° West 359 413 18,300 2,100 Climbing FAA TRACON SMA TRACON (SMA)
12:06AM 42.5478 -83.8728 303° West 361 415 19,000 1,740 Climbing FAA TRACON SMA TRACON (SMA)
12:06AM 42.5650 -83.9081 304° West 363 418 19,500 1,380 Climbing FAA TRACON SMA TRACON (SMA)
12:07AM 42.5825 -83.9436 304° West 366 421 19,900 1,320 Climbing FAA TRACON SMA TRACON (SMA)
12:07AM 42.6044 -83.9889 303° West 371 427 20,400 1,320 Climbing FAA TRACON SMA TRACON (SMA)
12:07AM 42.6225 -84.0258 304° West 376 433 20,800 1,200 Climbing FAA TRACON SMA TRACON (SMA)
12:08AM 42.6406 -84.0625 304° West 379 436 21,200 1,200 Climbing FAA TRACON SMA TRACON (SMA)
12:08AM 42.6636 -84.1094 304° West 384 442 21,600 1,020 Climbing FAA TRACON SMA TRACON (SMA)
12:08AM 42.6819 -84.1478 303° West 388 447 21,900 1,020 Climbing FAA TRACON SMA TRACON (SMA)
12:09AM 42.7006 -84.1861 303° West 393 452 22,300 1,200 Climbing FAA TRACON SMA TRACON (SMA)
12:09AM 42.7239 -84.2347 303° West 397 457 22,700 1,020 Climbing FAA TRACON SMA TRACON (SMA)
12:09AM 42.7425 -84.2739 303° West 399 459 23,000 420 Climbing FAA TRACON SMA TRACON (SMA)
12:10AM 42.7569 -84.3031 304° West 401 461 23,000  Level FAA TRACON SMA TRACON (SMA)
12:10AM 42.7569 -84.3031 36° Northeast 401 461 23,000 360 Level FAA TRACON SMA TRACON (SMA)
12:12AM 42.8906 -84.5844 303° West 433 498 23,800 420 Climbing Chicago Center
12:13AM 42.9575 -84.7247 303° West 441 507 24,000 60 Climbing Chicago Center
12:14AM 43.0256 -84.8672 303° West 449 517 24,000  Level Chicago Center
12:15AM 43.0922 -85.0108 302° West 448 516 24,000  Level Chicago Center
12:16AM 43.1581 -85.1506 303° West 443 510 24,000  Level Chicago Center
12:17AM 43.2242 -85.2897 303° West 439 505 24,000  Level Chicago Center
12:18AM 43.2883 -85.4292 302° West 436 502 24,000  Level Chicago Center
12:19AM 43.3519 -85.5669 302° West 434 499 24,000  Level Chicago Center
12:19AM 43.3900 -85.6500 302° West 433 498 24,000  Level Minneapolis Center
12:20AM 43.4539 -85.7886 302° West 434 499 24,000  Level Minneapolis Center
12:21AM 43.5189 -85.9281 303° West 436 502 24,000  Level Minneapolis Center
12:22AM 43.5575 -86.0119 302° West 435 501 24,000  Level Chicago Center
12:23AM 43.6222 -86.1550 302° West 442 509 24,000  Level Chicago Center
12:23AM 43.6478 -86.2136 301° West 442 509 24,000  Level Minneapolis Center
12:24AM 43.7111 -86.3508 303° West 429 494 24,000  Level Minneapolis Center
12:25AM 43.7722 -86.4886 302° West 422 486 24,000 -60 Level Minneapolis Center
12:26AM 43.8467 -86.6553 302° West 426 490 23,900 -1,140 Descending Minneapolis Center
12:27AM 43.9069 -86.7892 302° West 414 476 21,800 -1,980 Descending Minneapolis Center
12:28AM 43.9617 -86.9158 301° West 389 448 19,900 -2,040 Descending Minneapolis Center
12:29AM 44.0158 -87.0389 302° West 378 435 17,800 -2,040 Descending Minneapolis Center
12:30AM 44.0686 -87.1594 301° West 367 422 15,800 -2,040 Descending Minneapolis Center
12:31AM 44.1158 -87.2722 300° West 328 377 13,700 -1,920 Descending Minneapolis Center
12:32AM 44.1494 -87.3736 295° West 294 338 12,000 -1,680 Descending Minneapolis Center
12:33AM 44.1778 -87.4628 294° West 259 298 10,400 -1,620 Descending Minneapolis Center
12:35AM 44.2067 -87.5444 296° West 240 276 8,800 -1,500 Descending Minneapolis Center
12:36AM 44.2336 -87.6250 295° West 233 268 7,400 -1,440 Descending Minneapolis Center
12:37AM 44.2633 -87.7017 298° West 227 261 6,000 -1,320 Descending Minneapolis Center
12:38AM 44.2900 -87.7775 296° West 223 257 4,800 -1,200 Descending Minneapolis Center
12:39AM 44.3175 -87.8500 298° West 216 249 3,700 -900 Descending Minneapolis Center
12:40AM 44.3442 -87.9253 296° West 216 249 3,100 -300 Descending Minneapolis Center
12:41AM 44.3689 -87.9958 296° West 209 241 3,100 -60 Level Minneapolis Center
12:42AM 44.3842 -88.0564 289° West 188 216 3,000 -360 Descending Minneapolis Center
12:43AM 44.3964 -88.1028 290° West 158 182 2,400 -420 Descending Minneapolis Center
12:44AM 44.4236 -88.1264 328° Northwest 141 162 2,200 -240 Descending Minneapolis Center